Terminal Aerodrome Forecast
Issued by NWS Raleigh/Durham, NC

Home | Current Version | Previous Version | Text Only | Print | Product List | Glossary On
Versions: 1 2 3 4 5 6 7 8 9 10 11 12 13 14 15 16 17 18 19 20 21 22 23 24 25 26 27 28 29 30 31 32 33 34 35 36 37 38 39 40 41 42 43 44
051
FTUS42 KRAH 101733
TAFRDU
TAF
KRDU 101733Z 1018/1118 22012G22KT P6SM OVC015
     FM102100 32011KT 4SM -RA BR OVC007
      TEMPO 1104/1108 34008G14KT P6SM -RA OVC004
     FM110900 35007KT P6SM -RA BKN007
     FM111200 01009KT P6SM SCT015 BKN070=

USA.gov is the U.S. government's official web portal to all federal, state and local government web resources and services.